Time;durP1;ratioP1;P1;durP2;ratioP2;P2;SDS_P1;SDS_P2;PMS_P1;PMS_P2;Temp;Humidity;BMP_temperature;BMP_pressure;BME280_temperature;BME280_humidity;BME280_pressure;Samples;Min_cycle;Max_cycle;Signal;HPM_P1;HPM_P2
2022/06/26 00:00:51;;;;;;;;;;;;;;;22.08;82.65;96965.11;587146;241;64985;-75
2022/06/26 00:03:19;;;;;;;;;;;;;;;22.07;82.61;96958.17;587132;241;68693;-74
2022/06/26 00:05:46;;;;;;;;;;;;;;;22.08;82.61;96962.44;587130;241;68533;-74
2022/06/26 00:08:14;;;;;;;;;;;;;;;22.08;82.66;96969.67;587146;241;64971;-74
2022/06/26 00:10:41;;;;;;;;;;;;;;;22.08;82.71;96969.67;587198;241;68543;-74
2022/06/26 00:13:09;;;;;;;;;;;;;;;22.08;82.72;96964.32;587144;241;68292;-74
2022/06/26 00:15:36;;;;;;;;;;;;;;;22.07;82.69;96971.56;587131;241;64989;-74
2022/06/26 00:18:04;;;;;;;;;;;;;;;22.07;82.76;96973.41;587109;241;68675;-74
2022/06/26 00:20:31;;;;;;;;;;;;;;;22.07;82.75;96968.88;587127;241;68698;-74
2022/06/26 00:22:59;;;;;;;;;;;;;;;22.08;82.72;96970.47;587177;241;63034;-73
2022/06/26 00:25:27;;;;;;;;;;;;;;;22.08;82.69;96975.02;587132;241;66483;-74
2022/06/26 00:27:54;;;;;;;;;;;;;;;22.08;82.70;96975.82;587136;241;66506;-74
2022/06/26 00:30:22;;;;;;;;;;;;;;;22.07;82.67;96973.41;587148;241;62822;-74
2022/06/26 00:32:50;;;;;;;;;;;;;;;22.08;82.67;96975.02;587134;241;68689;-74
2022/06/26 00:35:17;;;;;;;;;;;;;;;22.08;82.69;96969.67;587162;241;68568;-75
2022/06/26 00:37:45;;;;;;;;;;;;;;;22.09;82.75;96971.26;587172;241;64924;-74
2022/06/26 00:40:12;;;;;;;;;;;;;;;22.08;82.69;96972.34;587175;241;68549;-74
2022/06/26 00:42:40;;;;;;;;;;;;;;;22.08;82.74;96972.34;587131;241;69007;-74
2022/06/26 00:45:08;;;;;;;;;;;;;;;22.08;82.78;96964.32;587097;241;62742;-71
2022/06/26 00:47:36;;;;;;;;;;;;;;;22.07;82.79;96963.53;587189;241;66762;-71
2022/06/26 00:50:05;;;;;;;;;;;;;;;22.08;82.81;96961.64;587139;241;67389;-71
2022/06/26 00:52:33;;;;;;;;;;;;;;;22.07;82.80;96958.17;587119;241;65050;-71
2022/06/26 00:55:01;;;;;;;;;;;;;;;22.07;82.83;96957.34;587120;241;68745;-71
2022/06/26 00:57:29;;;;;;;;;;;;;;;22.07;82.79;96954.67;587122;241;68583;-71
2022/06/26 00:59:56;;;;;;;;;;;;;;;22.07;82.82;96958.17;587134;241;64872;-71
2022/06/26 01:02:24;;;;;;;;;;;;;;;22.07;82.83;96952.00;587202;241;66609;-71
2022/06/26 01:04:51;;;;;;;;;;;;;;;22.07;82.82;96952.82;587132;241;66504;-71
2022/06/26 01:07:19;;;;;;;;;;;;;;;22.08;82.81;96950.94;587145;241;65373;-71
2022/06/26 01:09:46;;;;;;;;;;;;;;;22.07;82.78;96952.82;587109;241;68662;-71
2022/06/26 01:12:14;;;;;;;;;;;;;;;22.07;82.85;96942.12;587102;241;68715;-71
2022/06/26 01:14:42;;;;;;;;;;;;;;;22.07;82.89;96935.94;587192;241;64899;-71
2022/06/26 01:17:10;;;;;;;;;;;;;;;22.07;82.83;96935.94;587137;241;68913;-71
2022/06/26 01:19:37;;;;;;;;;;;;;;;22.06;82.85;96935.15;587131;241;66372;-71
2022/06/26 01:22:05;;;;;;;;;;;;;;;22.06;82.87;96929.80;587124;241;65610;-71
2022/06/26 01:24:33;;;;;;;;;;;;;;;22.07;82.87;96930.59;587119;241;66532;-71
2022/06/26 01:27:00;;;;;;;;;;;;;;;22.07;82.85;96923.38;587167;241;66352;-71
2022/06/26 01:29:28;;;;;;;;;;;;;;;22.07;82.88;96922.56;587150;241;64850;-71
2022/06/26 01:31:55;;;;;;;;;;;;;;;22.07;82.85;96930.59;587130;241;66461;-71
2022/06/26 01:34:24;;;;;;;;;;;;;;;22.07;82.89;96925.23;587125;241;66727;-71
2022/06/26 01:36:53;;;;;;;;;;;;;;;22.06;82.84;96927.13;587203;241;43621;-71
2022/06/26 01:39:20;;;;;;;;;;;;;;;22.08;82.84;96932.20;587169;241;66434;-71
2022/06/26 01:41:49;;;;;;;;;;;;;;;22.06;82.85;96932.47;587170;241;66661;-71
2022/06/26 01:44:17;;;;;;;;;;;;;;;22.07;82.85;96933.27;587165;241;62549;-71
2022/06/26 01:46:45;;;;;;;;;;;;;;;22.08;82.85;96932.20;587170;241;68776;-71
2022/06/26 01:49:13;;;;;;;;;;;;;;;22.06;82.86;96939.70;587162;241;66080;-71
2022/06/26 01:51:42;;;;;;;;;;;;;;;22.07;82.87;96935.94;587187;241;62879;-71
2022/06/26 01:54:10;;;;;;;;;;;;;;;22.08;82.90;96932.20;587151;241;68592;-71
2022/06/26 01:56:38;;;;;;;;;;;;;;;22.07;82.91;96931.41;587139;241;66630;-71
2022/06/26 01:59:05;;;;;;;;;;;;;;;22.07;82.88;96933.27;587151;241;64970;-71
2022/06/26 02:01:34;;;;;;;;;;;;;;;22.07;82.94;96934.09;587214;241;47406;-71
2022/06/26 02:04:02;;;;;;;;;;;;;;;22.07;82.96;96942.12;587144;241;69075;-71
2022/06/26 02:06:30;;;;;;;;;;;;;;;22.07;82.93;96938.62;587168;241;62400;-71
2022/06/26 02:08:58;;;;;;;;;;;;;;;22.06;82.94;96943.18;587139;241;68714;-71
2022/06/26 02:14:12;;;;;;;;;;;;;;;22.07;82.96;96949.33;587159;241;62517;-69
2022/06/26 02:16:44;;;;;;;;;;;;;;;22.07;82.98;96943.97;587194;241;47001;-69
2022/06/26 02:23:09;;;;;;;;;;;;;;;22.07;83.00;96946.64;587241;241;39137;-69
2022/06/26 02:25:37;;;;;;;;;;;;;;;22.07;83.01;96941.30;587124;241;68695;-70
2022/06/26 02:28:04;;;;;;;;;;;;;;;22.06;83.02;96937.03;587198;241;68901;-70
2022/06/26 02:30:32;;;;;;;;;;;;;;;22.06;83.07;96937.03;587151;241;64915;-70
2022/06/26 02:33:00;;;;;;;;;;;;;;;22.06;83.07;96937.03;587156;241;68673;-70
2022/06/26 02:35:28;;;;;;;;;;;;;;;22.06;83.14;96939.70;587111;241;68512;-70
2022/06/26 02:37:56;;;;;;;;;;;;;;;22.06;83.14;96934.36;587154;241;62986;-70
2022/06/26 02:40:25;;;;;;;;;;;;;;;22.06;83.10;96940.50;587174;241;68688;-70
2022/06/26 02:42:54;;;;;;;;;;;;;;;22.07;83.08;96938.62;587235;241;66150;-70
2022/06/26 02:52:12;;;;;;;;;;;;;;;22.06;83.10;96940.50;587241;241;40342;-71
2022/06/26 02:54:40;;;;;;;;;;;;;;;22.06;83.13;96939.70;590242;240;65085;-71
2022/06/26 02:57:07;;;;;;;;;;;;;;;22.06;83.15;96943.18;590803;240;68419;-71
2022/06/26 02:59:35;;;;;;;;;;;;;;;22.05;83.21;96946.15;590796;240;66007;-71
2022/06/26 03:02:03;;;;;;;;;;;;;;;22.06;83.22;96939.70;590825;240;62788;-74
2022/06/26 03:04:38;;;;;;;;;;;;;;;22.05;83.22;96944.27;590846;240;51765;-75
2022/06/26 03:07:06;;;;;;;;;;;;;;;22.04;83.26;96947.20;590762;240;66345;-74
2022/06/26 03:09:35;;;;;;;;;;;;;;;22.06;83.26;96950.41;590809;240;64918;-74
2022/06/26 03:12:03;;;;;;;;;;;;;;;22.07;83.27;96952.00;590809;240;68343;-74
2022/06/26 03:14:33;;;;;;;;;;;;;;;22.06;83.28;96956.56;590782;240;68708;-74
2022/06/26 03:17:02;;;;;;;;;;;;;;;22.06;83.23;96951.20;590768;240;62784;-74
2022/06/26 03:19:29;;;;;;;;;;;;;;;22.06;83.16;96961.11;590796;240;66907;-71
2022/06/26 03:21:57;;;;;;;;;;;;;;;22.06;83.07;96961.91;590782;240;66478;-71
2022/06/26 03:24:24;;;;;;;;;;;;;;;22.06;83.05;96955.77;590772;240;65052;-71
2022/06/26 03:26:52;;;;;;;;;;;;;;;22.07;83.04;96954.67;590800;240;68853;-71
2022/06/26 03:29:20;;;;;;;;;;;;;;;22.07;83.05;96952.00;590768;240;68518;-71
2022/06/26 03:31:48;;;;;;;;;;;;;;;22.06;83.11;96953.88;590798;240;62997;-71
2022/06/26 03:34:17;;;;;;;;;;;;;;;22.06;83.08;96959.23;590821;240;69179;-71
2022/06/26 03:36:45;;;;;;;;;;;;;;;22.06;83.07;96964.59;590774;240;66096;-71
2022/06/26 03:39:13;;;;;;;;;;;;;;;22.07;83.11;96974.23;590777;240;63778;-71
2022/06/26 03:41:41;;;;;;;;;;;;;;;22.07;83.05;96976.09;590771;240;66685;-71
2022/06/26 03:44:08;;;;;;;;;;;;;;;22.07;83.09;96973.41;590823;240;68566;-71
2022/06/26 03:46:36;;;;;;;;;;;;;;;22.07;83.14;96976.91;590754;240;65175;-71
2022/06/26 03:49:04;;;;;;;;;;;;;;;22.06;83.11;96963.80;590787;240;66070;-71
2022/06/26 03:51:32;;;;;;;;;;;;;;;22.06;83.13;96972.61;590780;240;68636;-74
2022/06/26 03:53:59;;;;;;;;;;;;;;;22.06;83.19;96975.29;588665;240;64966;-74
2022/06/26 03:56:27;;;;;;;;;;;;;;;22.06;83.24;96971.82;587146;241;68670;-74
2022/06/26 03:58:54;;;;;;;;;;;;;;;22.07;83.19;96976.09;587176;241;66217;-74
2022/06/26 04:01:22;;;;;;;;;;;;;;;22.07;83.19;96984.11;587155;241;65608;-74
2022/06/26 04:03:51;;;;;;;;;;;;;;;22.06;83.20;96977.97;587124;241;69175;-74
2022/06/26 04:06:18;;;;;;;;;;;;;;;22.07;83.21;96984.11;587124;241;66755;-74
2022/06/26 04:08:47;;;;;;;;;;;;;;;22.07;83.18;96984.94;587158;241;65003;-74
2022/06/26 04:11:15;;;;;;;;;;;;;;;22.07;83.24;96986.79;587174;241;66539;-75
2022/06/26 04:13:45;;;;;;;;;;;;;;;22.06;83.23;96985.20;587193;241;47364;-74
2022/06/26 04:16:14;;;;;;;;;;;;;;;22.07;83.21;96989.47;587208;241;42501;-74
2022/06/26 04:18:43;;;;;;;;;;;;;;;22.06;83.13;96991.34;587187;241;45831;-74
2022/06/26 04:21:11;;;;;;;;;;;;;;;22.07;83.15;96992.14;587149;241;66457;-74
2022/06/26 04:23:39;;;;;;;;;;;;;;;22.06;83.17;96996.70;587196;241;65706;-74
2022/06/26 04:26:08;;;;;;;;;;;;;;;22.06;83.16;96998.58;587160;241;45620;-74
2022/06/26 04:28:36;;;;;;;;;;;;;;;22.06;83.21;96999.38;587124;241;66502;-74
2022/06/26 04:31:05;;;;;;;;;;;;;;;22.06;83.16;96999.38;587183;241;43886;-74
2022/06/26 04:33:34;;;;;;;;;;;;;;;22.06;83.13;97004.73;587218;241;48321;-73
2022/06/26 04:36:03;;;;;;;;;;;;;;;22.07;83.21;97010.88;587196;241;45895;-73
2022/06/26 04:38:31;;;;;;;;;;;;;;;22.06;83.19;97003.94;587174;241;64878;-73
2022/06/26 04:41:31;;;;;;;;;;;;;;;22.06;83.22;97006.61;587139;241;69143;-72
2022/06/26 04:43:29;;;;;;;;;;;;;;;22.07;83.25;97010.88;587219;241;66478;-73
2022/06/26 04:45:58;;;;;;;;;;;;;;;22.06;83.24;97014.64;587153;241;65582;-73
2022/06/26 04:48:26;;;;;;;;;;;;;;;22.06;83.30;97010.08;587144;241;69139;-73
2022/06/26 04:50:54;;;;;;;;;;;;;;;22.06;83.30;97018.11;587169;241;69042;-72
2022/06/26 04:53:22;;;;;;;;;;;;;;;22.06;83.28;97020.78;587096;241;65130;-73
2022/06/26 04:55:50;;;;;;;;;;;;;;;22.06;83.29;97015.44;587107;241;68685;-73
2022/06/26 04:58:17;;;;;;;;;;;;;;;22.07;83.28;97021.58;587129;241;66409;-73
2022/06/26 05:00:45;;;;;;;;;;;;;;;22.06;83.29;97025.34;587162;241;65032;-73
2022/06/26 05:03:14;;;;;;;;;;;;;;;22.07;83.25;97032.28;587235;241;45227;-73
2022/06/26 05:05:43;;;;;;;;;;;;;;;22.07;83.23;97034.95;587242;241;48478;-73
2022/06/26 05:08:22;;;;;;;;;;;;;;;22.05;83.32;97035.25;587224;241;43896;-73
2022/06/26 05:10:49;;;;;;;;;;;;;;;22.06;83.29;97034.16;587127;241;68871;-73
2022/06/26 05:13:18;;;;;;;;;;;;;;;22.07;83.30;97037.64;587180;241;65831;-73
2022/06/26 05:16:06;;;;;;;;;;;;;;;22.06;83.26;97036.84;586784;241;46518;-75
2022/06/26 05:18:34;;;;;;;;;;;;;;;22.06;83.29;97046.75;586825;241;66460;-73
2022/06/26 05:21:02;;;;;;;;;;;;;;;22.05;83.29;97043.28;586831;241;66736;-73
2022/06/26 05:23:31;;;;;;;;;;;;;;;22.05;83.21;97039.81;587185;241;42004;-69
2022/06/26 05:26:03;;;;;;;;;;;;;;;22.06;83.19;97044.08;587201;241;47449;-69
2022/06/26 05:28:34;;;;;;;;;;;;;;;22.06;83.21;97042.20;587115;241;69517;-69
2022/06/26 05:31:01;;;;;;;;;;;;;;;22.06;83.21;97058.25;587204;241;65238;-69
2022/06/26 05:33:30;;;;;;;;;;;;;;;22.06;83.26;97055.58;587205;241;45022;-69
2022/06/26 05:35:58;;;;;;;;;;;;;;;22.06;83.23;97057.46;587156;241;68539;-69
2022/06/26 05:38:25;;;;;;;;;;;;;;;22.06;83.22;97062.81;587189;241;65146;-69
2022/06/26 05:40:53;;;;;;;;;;;;;;;22.06;83.23;97057.46;587120;241;69425;-69
2022/06/26 05:43:21;;;;;;;;;;;;;;;22.05;83.25;97056.66;587204;241;66442;-69
2022/06/26 05:45:48;;;;;;;;;;;;;;;22.06;83.23;97068.16;587116;241;64983;-69
2022/06/26 05:48:18;;;;;;;;;;;;;;;22.06;83.29;97073.52;587168;241;50019;-69
2022/06/26 05:50:47;;;;;;;;;;;;;;;22.05;83.25;97064.69;587201;241;45937;-69
2022/06/26 05:53:20;;;;;;;;;;;;;;;22.06;83.31;97070.84;587231;241;43502;-69
2022/06/26 05:56:07;;;;;;;;;;;;;;;22.05;83.38;97074.60;587289;241;46024;-69
2022/06/26 05:58:39;;;;;;;;;;;;;;;22.05;83.33;97078.08;587308;241;45840;-70
2022/06/26 06:01:11;;;;;;;;;;;;;;;22.05;83.31;97072.72;587183;241;46343;-70
2022/06/26 06:03:39;;;;;;;;;;;;;;;22.05;83.35;97071.92;587203;241;68671;-70
2022/06/26 06:06:08;;;;;;;;;;;;;;;22.05;83.35;97070.05;587111;241;69025;-70
2022/06/26 06:08:35;;;;;;;;;;;;;;;22.05;83.39;97070.05;587153;241;64897;-70
2022/06/26 06:11:03;;;;;;;;;;;;;;;22.06;83.42;97070.84;587202;241;66484;-70
2022/06/26 06:13:30;;;;;;;;;;;;;;;22.05;83.48;97074.60;587142;241;68999;-70
2022/06/26 06:15:58;;;;;;;;;;;;;;;22.04;83.07;97067.63;587164;241;64914;-71
2022/06/26 06:18:26;;;;;;;;;;;;;;;22.05;82.38;97071.92;587153;241;68653;-70
2022/06/26 06:20:53;;;;;;;;;;;;;;;22.07;82.79;97072.43;587147;241;66425;-70
2022/06/26 06:23:21;;;;;;;;;;;;;;;22.08;82.87;97068.70;587151;241;64854;-70
2022/06/26 06:25:48;;;;;;;;;;;;;;;22.08;83.00;97060.66;587216;241;68669;-70
2022/06/26 06:28:18;;;;;;;;;;;;;;;22.09;83.28;97068.41;587164;241;68236;-70
2022/06/26 06:30:47;;;;;;;;;;;;;;;22.09;83.39;97062.25;587158;241;65683;-70
2022/06/26 06:33:16;;;;;;;;;;;;;;;22.09;83.42;97070.28;587212;241;48316;-70
2022/06/26 06:35:45;;;;;;;;;;;;;;;22.10;83.43;97071.91;587125;241;68765;-70
2022/06/26 06:38:14;;;;;;;;;;;;;;;22.10;83.42;97074.58;587311;240;44013;-70
2022/06/26 06:40:43;;;;;;;;;;;;;;;22.10;83.42;97071.91;587223;241;46658;-70
2022/06/26 06:43:13;;;;;;;;;;;;;;;22.11;83.42;97078.84;587136;241;68978;-70
2022/06/26 06:45:58;;;;;;;;;;;;;;;22.11;83.40;97076.17;587272;241;39162;-69
2022/06/26 06:48:26;;;;;;;;;;;;;;;22.12;83.41;97075.88;587134;241;68677;-69
2022/06/26 06:51:10;;;;;;;;;;;;;;;22.11;83.41;97071.61;586822;241;48292;-70
2022/06/26 06:53:39;;;;;;;;;;;;;;;22.12;83.43;97080.43;586524;241;46941;-73
2022/06/26 06:56:07;;;;;;;;;;;;;;;22.12;83.41;97081.23;585863;242;68414;-73
2022/06/26 06:58:35;;;;;;;;;;;;;;;22.12;83.39;97078.55;585886;242;68352;-73
2022/06/26 07:01:04;;;;;;;;;;;;;;;22.14;83.36;97075.61;585888;242;43591;-73
2022/06/26 07:03:31;;;;;;;;;;;;;;;22.13;83.33;97080.17;585887;242;68649;-73
2022/06/26 07:05:59;;;;;;;;;;;;;;;22.13;83.37;97074.81;585868;242;68242;-73
2022/06/26 07:08:28;;;;;;;;;;;;;;;22.14;83.38;97075.61;585953;242;42556;-73
2022/06/26 07:10:56;;;;;;;;;;;;;;;22.14;83.35;97067.58;585863;242;65620;-73
2022/06/26 07:13:24;;;;;;;;;;;;;;;22.15;83.36;97067.31;585861;242;68342;-70
2022/06/26 07:15:51;;;;;;;;;;;;;;;22.14;83.34;97071.05;585865;242;62446;-70
2022/06/26 07:18:19;;;;;;;;;;;;;;;22.15;83.32;97074.52;585884;242;68738;-70
2022/06/26 07:20:47;;;;;;;;;;;;;;;22.15;83.28;97071.84;585897;242;66662;-70
2022/06/26 07:23:15;;;;;;;;;;;;;;;22.15;83.34;97067.31;585826;242;65119;-70
2022/06/26 07:25:44;;;;;;;;;;;;;;;22.16;83.33;97068.91;585894;241;45891;-70
2022/06/26 07:28:12;;;;;;;;;;;;;;;22.17;83.30;97064.34;585816;242;66062;-70
2022/06/26 07:30:40;;;;;;;;;;;;;;;22.16;83.34;97057.41;585847;242;65677;-70
2022/06/26 07:35:56;;;;;;;;;;;;;;;22.18;83.31;97057.97;585935;242;45260;-70
2022/06/26 07:38:23;;;;;;;;;;;;;;;22.16;83.31;97047.49;585836;242;64756;-70
2022/06/26 07:40:52;;;;;;;;;;;;;;;22.16;83.29;97052.84;585850;242;68658;-73
2022/06/26 07:43:21;;;;;;;;;;;;;;;22.17;83.30;97057.11;585844;242;68945;-73
2022/06/26 07:45:49;;;;;;;;;;;;;;;22.17;83.29;97059.78;585845;242;65156;-73
2022/06/26 07:48:17;;;;;;;;;;;;;;;22.17;83.29;97059.78;585890;242;68682;-73
2022/06/26 07:50:44;;;;;;;;;;;;;;;22.18;83.27;97060.64;585804;242;66962;-73
2022/06/26 07:53:12;;;;;;;;;;;;;;;22.19;83.24;97066.79;586132;241;62749;-73
2022/06/26 07:55:39;;;;;;;;;;;;;;;22.17;83.26;97065.14;587152;241;66578;-73
2022/06/26 07:58:07;;;;;;;;;;;;;;;22.17;83.25;97064.34;587148;241;68606;-73
2022/06/26 08:00:34;;;;;;;;;;;;;;;22.20;83.21;97076.41;587168;241;64852;-73
2022/06/26 08:03:04;;;;;;;;;;;;;;;22.19;83.21;97072.14;587169;241;68708;-74
2022/06/26 08:05:31;;;;;;;;;;;;;;;22.19;83.21;97072.94;587115;241;68702;-73
2022/06/26 08:07:59;;;;;;;;;;;;;;;22.20;83.21;97073.73;587157;241;65212;-73
2022/06/26 08:10:26;;;;;;;;;;;;;;;22.19;83.19;97075.61;587144;241;68219;-73
2022/06/26 08:12:54;;;;;;;;;;;;;;;22.20;83.21;97063.82;587194;241;68507;-73
2022/06/26 08:15:23;;;;;;;;;;;;;;;22.20;83.20;97068.38;587094;241;63658;-74
2022/06/26 08:17:50;;;;;;;;;;;;;;;22.19;83.19;97072.94;587140;241;66713;-73
2022/06/26 08:20:17;;;;;;;;;;;;;;;22.20;83.17;97068.38;587152;241;66478;-73
2022/06/26 08:22:45;;;;;;;;;;;;;;;22.20;83.17;97074.52;587116;241;62776;-73
2022/06/26 08:25:12;;;;;;;;;;;;;;;22.20;83.16;97069.17;587168;241;66479;-73
2022/06/26 08:27:40;;;;;;;;;;;;;;;22.20;83.17;97074.52;587123;241;66489;-73
2022/06/26 08:30:09;;;;;;;;;;;;;;;22.20;83.16;97073.73;587162;241;64947;-74
2022/06/26 08:32:38;;;;;;;;;;;;;;;22.21;83.13;97083.35;587183;241;66501;-73
2022/06/26 08:35:06;;;;;;;;;;;;;;;22.21;83.15;97086.86;587128;241;68400;-73
2022/06/26 08:37:34;;;;;;;;;;;;;;;22.20;83.12;97079.88;587144;241;65985;-73
2022/06/26 08:40:03;;;;;;;;;;;;;;;22.21;83.11;97076.14;587248;240;46309;-73
2022/06/26 08:42:38;;;;;;;;;;;;;;;22.21;83.13;97075.32;587111;241;68597;-73
2022/06/26 08:45:05;;;;;;;;;;;;;;;22.21;83.16;97081.50;587126;241;67160;-73
2022/06/26 08:47:34;;;;;;;;;;;;;;;22.21;83.15;97078.00;587121;241;68891;-70
2022/06/26 08:50:02;;;;;;;;;;;;;;;22.21;83.18;97067.29;587098;241;68800;-70
2022/06/26 08:52:30;;;;;;;;;;;;;;;22.21;83.13;97073.47;587183;241;65259;-70
2022/06/26 08:54:58;;;;;;;;;;;;;;;22.21;83.12;97081.50;587103;241;68672;-70
2022/06/26 08:57:26;;;;;;;;;;;;;;;22.21;83.12;97076.14;587144;241;66268;-70
2022/06/26 08:59:53;;;;;;;;;;;;;;;22.21;83.12;97092.20;587142;241;65252;-70
2022/06/26 09:02:21;;;;;;;;;;;;;;;22.22;83.09;97085.77;587153;241;68704;-70
2022/06/26 09:04:48;;;;;;;;;;;;;;;22.22;83.08;97093.80;587128;241;68964;-74
2022/06/26 09:07:16;;;;;;;;;;;;;;;22.22;83.11;97087.65;587182;241;64938;-73
2022/06/26 09:09:43;;;;;;;;;;;;;;;22.22;83.14;97091.13;587121;241;68686;-73
2022/06/26 09:12:10;;;;;;;;;;;;;;;22.22;83.12;97088.44;587113;241;68574;-73
2022/06/26 09:14:38;;;;;;;;;;;;;;;22.22;83.10;97090.33;587142;241;64901;-73
2022/06/26 09:17:05;;;;;;;;;;;;;;;22.22;83.13;97096.47;587126;241;68729;-74
2022/06/26 09:19:36;;;;;;;;;;;;;;;22.23;83.11;97098.06;587168;241;68602;-73
2022/06/26 09:22:07;;;;;;;;;;;;;;;22.23;83.09;97099.95;587156;241;62767;-73
2022/06/26 09:24:36;;;;;;;;;;;;;;;22.23;83.10;97102.63;587138;241;68351;-74
2022/06/26 09:27:05;;;;;;;;;;;;;;;22.23;83.10;97099.95;587102;241;66513;-74
2022/06/26 09:29:32;;;;;;;;;;;;;;;22.23;83.09;97099.95;587107;241;62864;-74
2022/06/26 09:32:13;;;;;;;;;;;;;;;22.23;83.08;97105.30;587204;241;66704;-74
2022/06/26 09:34:45;;;;;;;;;;;;;;;22.24;83.08;97106.91;587123;241;68785;-73
2022/06/26 09:37:13;;;;;;;;;;;;;;;22.23;83.11;97100.73;587117;241;62899;-73
2022/06/26 09:39:40;;;;;;;;;;;;;;;22.23;83.12;97105.30;587148;241;66709;-73
2022/06/26 09:42:19;;;;;;;;;;;;;;;22.23;83.09;97108.77;587122;241;68516;-73
2022/06/26 09:44:47;;;;;;;;;;;;;;;22.23;83.09;97105.30;587100;241;65348;-74
2022/06/26 09:47:25;;;;;;;;;;;;;;;22.23;83.06;97099.95;587205;241;66656;-74
2022/06/26 09:49:54;;;;;;;;;;;;;;;22.23;83.06;97100.73;587117;241;68598;-74
2022/06/26 09:52:23;;;;;;;;;;;;;;;22.24;83.09;97104.23;587083;241;62821;-74
2022/06/26 09:54:52;;;;;;;;;;;;;;;22.23;83.11;97100.73;585891;241;68724;-74
2022/06/26 09:57:20;;;;;;;;;;;;;;;22.24;83.10;97097.00;585795;242;68435;-74
2022/06/26 09:59:50;;;;;;;;;;;;;;;22.24;83.11;97104.23;585916;242;63854;-74
2022/06/26 10:07:54;;;;;;;;;;;;;;;22.24;83.07;97110.39;585873;242;65163;-74
2022/06/26 10:10:23;;;;;;;;;;;;;;;22.24;83.07;97105.03;585853;242;66445;-74
2022/06/26 10:13:03;;;;;;;;;;;;;;;22.24;83.07;97104.23;585865;242;68305;-75
2022/06/26 10:15:35;;;;;;;;;;;;;;;22.23;83.05;97103.41;585782;242;63651;-73
2022/06/26 10:18:07;;;;;;;;;;;;;;;22.23;83.07;97106.09;585539;242;68751;-73
2022/06/26 10:20:35;;;;;;;;;;;;;;;22.24;83.03;97101.56;585467;242;68893;-73
2022/06/26 10:23:03;;;;;;;;;;;;;;;22.24;83.04;97110.39;585857;242;64894;-73
2022/06/26 10:25:31;;;;;;;;;;;;;;;22.24;83.06;97101.56;585843;242;68587;-73
2022/06/26 10:28:00;;;;;;;;;;;;;;;22.24;83.03;97107.71;585836;242;66683;-73
2022/06/26 10:30:29;;;;;;;;;;;;;;;22.25;83.03;97105.83;585820;242;64911;-73
2022/06/26 10:33:18;;;;;;;;;;;;;;;22.25;83.06;97105.83;585877;242;68535;-73
2022/06/26 10:35:43;;;;;;;;;;;;;;;22.25;83.03;97105.83;585758;242;68679;-73
2022/06/26 10:38:13;;;;;;;;;;;;;;;22.25;83.02;97100.48;585850;242;64706;-73
2022/06/26 10:43:27;;;;;;;;;;;;;;;22.25;83.01;97098.59;585828;242;66577;-71
2022/06/26 10:45:56;;;;;;;;;;;;;;;22.25;83.00;97103.16;585576;242;62765;-70
2022/06/26 10:48:23;;;;;;;;;;;;;;;22.25;83.00;97095.91;585671;242;68958;-70
2022/06/26 10:50:58;;;;;;;;;;;;;;;22.25;82.97;97098.59;585839;242;68514;-70
2022/06/26 10:53:27;;;;;;;;;;;;;;;22.25;82.95;97093.23;586188;241;62772;-70
2022/06/26 10:55:59;;;;;;;;;;;;;;;22.26;82.98;97094.86;586363;241;68694;-69
2022/06/26 10:58:27;;;;;;;;;;;;;;;22.26;83.00;97089.50;587143;241;68688;-71
2022/06/26 11:01:01;;;;;;;;;;;;;;;22.25;83.02;97087.09;587166;241;63679;-71
2022/06/26 11:03:30;;;;;;;;;;;;;;;22.26;82.98;97092.18;587242;241;66185;-72
2022/06/26 11:05:59;;;;;;;;;;;;;;;22.27;82.97;97085.73;587170;241;66563;-72
2022/06/26 11:08:30;;;;;;;;;;;;;;;22.26;82.98;97089.50;587109;241;64921;-69
2022/06/26 11:11:02;;;;;;;;;;;;;;;22.26;82.98;97076.12;587149;241;68924;-69
2022/06/26 11:13:30;;;;;;;;;;;;;;;22.27;82.99;97071.56;587184;241;66274;-70
2022/06/26 11:15:57;;;;;;;;;;;;;;;22.27;83.00;97077.70;587230;241;62791;-70
2022/06/26 11:18:25;;;;;;;;;;;;;;;22.27;83.01;97071.56;587158;241;68386;-70
2022/06/26 11:21:00;;;;;;;;;;;;;;;22.28;83.00;97075.83;587156;241;68346;-70
2022/06/26 11:23:24;;;;;;;;;;;;;;;22.26;83.03;97068.09;587106;241;64891;-70
2022/06/26 11:25:56;;;;;;;;;;;;;;;22.27;83.02;97069.67;587131;241;68574;-70
2022/06/26 11:28:28;;;;;;;;;;;;;;;22.26;83.02;97062.73;586953;241;66241;-70
2022/06/26 11:30:57;;;;;;;;;;;;;;;22.26;83.01;97062.73;587131;241;63698;-70
2022/06/26 11:33:26;;;;;;;;;;;;;;;22.27;83.04;97060.85;587033;241;68649;-70
2022/06/26 11:35:56;;;;;;;;;;;;;;;22.27;83.03;97048.26;586539;241;48777;-70
2022/06/26 11:38:23;;;;;;;;;;;;;;;22.28;83.04;97049.05;586534;241;65128;-70
2022/06/26 11:40:51;;;;;;;;;;;;;;;22.28;83.01;97051.73;587147;241;68671;-69
2022/06/26 11:43:19;;;;;;;;;;;;;;;22.28;83.04;97043.70;587209;241;68687;-70
2022/06/26 11:45:46;;;;;;;;;;;;;;;22.27;83.03;97037.55;586949;241;65037;-69
2022/06/26 11:48:17;;;;;;;;;;;;;;;22.28;83.00;97031.11;587120;241;68653;-72
2022/06/26 11:50:48;;;;;;;;;;;;;;;22.28;82.99;97043.70;587119;241;66092;-73
2022/06/26 11:53:25;;;;;;;;;;;;;;;22.28;83.06;97039.14;586700;241;62794;-73
2022/06/26 11:56:01;;;;;;;;;;;;;;;22.29;83.10;97034.58;585739;242;66237;-74
2022/06/26 11:58:33;;;;;;;;;;;;;;;22.29;83.14;97022.02;585873;242;68575;-73
2022/06/26 12:01:05;;;;;;;;;;;;;;;22.28;83.16;97023.08;585663;242;64942;-73
2022/06/26 12:03:32;;;;;;;;;;;;;;;22.29;83.19;97023.87;585735;240;69888;-74
2022/06/26 12:06:00;;;;;;;;;;;;;;;22.29;83.15;97023.87;585864;242;68530;-72
2022/06/26 12:08:29;;;;;;;;;;;;;;;22.29;83.16;97023.87;585824;242;64905;-72
2022/06/26 12:10:57;;;;;;;;;;;;;;;22.29;83.19;97022.02;585853;242;66505;-73
2022/06/26 12:13:26;;;;;;;;;;;;;;;22.29;83.19;97008.63;585862;242;66545;-73
2022/06/26 12:15:53;;;;;;;;;;;;;;;22.29;83.21;97016.66;585847;242;62819;-73
2022/06/26 12:18:21;;;;;;;;;;;;;;;22.29;83.19;97019.34;585866;242;66492;-73
2022/06/26 12:20:50;;;;;;;;;;;;;;;22.29;83.17;97019.34;585816;242;68619;-73
2022/06/26 12:23:17;;;;;;;;;;;;;;;22.30;83.20;97009.42;585850;242;64928;-73
2022/06/26 12:25:49;;;;;;;;;;;;;;;22.30;83.19;97010.22;585853;242;66509;-72
2022/06/26 12:28:24;;;;;;;;;;;;;;;22.30;83.22;97004.06;585799;241;66526;-73
2022/06/26 12:30:52;;;;;;;;;;;;;;;22.31;83.24;97005.66;585854;242;62754;-73
2022/06/26 12:33:19;;;;;;;;;;;;;;;22.31;83.28;97005.66;585860;242;68703;-73
2022/06/26 12:35:47;;;;;;;;;;;;;;;22.32;83.30;97007.27;585809;242;68587;-73
2022/06/26 12:38:21;;;;;;;;;;;;;;;22.30;83.33;96998.72;585864;242;65138;-73
2022/06/26 12:40:44;;;;;;;;;;;;;;;22.30;83.34;96996.83;585827;241;68646;-73
2022/06/26 12:43:11;;;;;;;;;;;;;;;22.31;83.33;96998.42;585869;242;66260;-73
2022/06/26 12:45:39;;;;;;;;;;;;;;;22.30;83.38;96991.48;585853;242;64984;-73
2022/06/26 12:48:06;;;;;;;;;;;;;;;22.31;83.40;96993.06;585781;242;66489;-73
2022/06/26 12:50:34;;;;;;;;;;;;;;;22.32;83.45;96991.21;585820;242;68863;-73
2022/06/26 12:53:02;;;;;;;;;;;;;;;22.33;83.48;96990.13;586063;241;62808;-73
2022/06/26 12:55:29;;;;;;;;;;;;;;;22.31;83.43;96990.39;587144;241;68664;-73
2022/06/26 12:57:57;;;;;;;;;;;;;;;22.32;83.46;96988.53;587093;241;68578;-73
2022/06/26 13:00:24;;;;;;;;;;;;;;;22.32;83.44;96985.86;587129;241;64962;-73
2022/06/26 13:02:52;;;;;;;;;;;;;;;22.32;83.42;96988.53;587117;241;66469;-73
2022/06/26 13:05:19;;;;;;;;;;;;;;;22.32;83.42;96989.33;587193;241;66440;-73
2022/06/26 13:07:47;;;;;;;;;;;;;;;22.32;83.43;96989.33;587151;241;63685;-73
2022/06/26 13:10:14;;;;;;;;;;;;;;;22.32;83.42;96983.97;587120;241;66318;-73
2022/06/26 13:12:42;;;;;;;;;;;;;;;22.33;83.45;96990.13;587143;241;66481;-73
2022/06/26 13:15:09;;;;;;;;;;;;;;;22.33;83.43;96987.44;587078;241;62737;-73
2022/06/26 13:17:37;;;;;;;;;;;;;;;22.33;83.45;96988.23;587204;241;68750;-73
2022/06/26 13:20:05;;;;;;;;;;;;;;;22.33;83.45;96993.59;587130;241;68606;-73